Time;durP1;ratioP1;P1;durP2;ratioP2;P2;SDS_P1;SDS_P2;PMS_P1;PMS_P2;Temp;Humidity;BMP_temperature;BMP_pressure;BME280_temperature;BME280_humidity;BME280_pressure;Samples;Min_cycle;Max_cycle;Signal;HPM_P1;HPM_P2
2023/08/16 00:01:42;;;;;;;8.20;6.93;;;13.20;92.60;;;;;;5032873;28;20383;-67
2023/08/16 00:04:08;;;;;;;9.40;7.50;;;13.20;92.70;;;;;;5027347;28;20033;-67
2023/08/16 00:06:33;;;;;;;11.43;7.87;;;13.20;92.90;;;;;;5032711;28;20041;-67
2023/08/16 00:08:59;;;;;;;10.27;7.40;;;13.20;93.10;;;;;;5031403;28;20036;-67
2023/08/16 00:11:28;;;;;;;9.20;7.73;;;13.30;93.40;;;;;;5004948;28;20044;-67
2023/08/16 00:13:54;;;;;;;8.17;7.00;;;13.30;93.40;;;;;;5016194;28;20124;-67
2023/08/16 00:16:19;;;;;;;9.50;6.90;;;13.30;93.70;;;;;;5032849;28;20390;-67
2023/08/16 00:18:45;;;;;;;8.73;7.03;;;13.30;93.70;;;;;;5028417;28;20130;-67
2023/08/16 00:21:11;;;;;;;8.60;6.80;;;13.20;93.70;;;;;;5030665;28;20037;-67
2023/08/16 00:23:36;;;;;;;8.57;5.73;;;13.20;93.60;;;;;;5028396;28;20047;-67
2023/08/16 00:26:02;;;;;;;9.27;6.77;;;13.20;93.80;;;;;;5032619;28;20040;-67
2023/08/16 00:28:28;;;;;;;10.00;6.77;;;13.20;94.00;;;;;;5032802;28;20067;-67
2023/08/16 00:30:54;;;;;;;10.03;7.20;;;13.20;94.00;;;;;;5028106;28;20535;-67
2023/08/16 00:33:21;;;;;;;8.07;6.57;;;13.20;93.90;;;;;;5029597;28;20076;-67
2023/08/16 00:35:47;;;;;;;7.80;6.27;;;13.20;93.90;;;;;;5025554;28;20299;-67
2023/08/16 00:38:13;;;;;;;9.37;7.70;;;13.10;93.80;;;;;;5031442;28;20337;-67
2023/08/16 00:40:38;;;;;;;9.50;7.63;;;13.10;93.80;;;;;;5028217;28;20300;-67
2023/08/16 00:43:04;;;;;;;9.50;7.03;;;13.10;93.80;;;;;;5032499;28;20047;-67
2023/08/16 00:45:30;;;;;;;9.33;6.00;;;13.10;94.00;;;;;;5011212;28;20114;-67
2023/08/16 00:47:56;;;;;;;8.47;6.27;;;13.10;94.00;;;;;;5026030;28;20140;-67
2023/08/16 00:50:24;;;;;;;7.17;5.77;;;13.00;94.10;;;;;;5031716;28;20497;-67
2023/08/16 00:52:51;;;;;;;7.63;6.83;;;13.00;94.20;;;;;;5014411;28;20323;-67
2023/08/16 00:55:17;;;;;;;9.20;6.47;;;13.00;94.20;;;;;;5031224;28;20365;-67
2023/08/16 00:57:43;;;;;;;10.73;7.53;;;12.90;94.20;;;;;;5026939;28;20291;-67
2023/08/16 01:00:10;;;;;;;8.27;6.43;;;12.90;94.40;;;;;;5013299;28;20299;-67
2023/08/16 01:02:36;;;;;;;7.93;5.90;;;12.90;94.80;;;;;;5032443;28;20040;-67
2023/08/16 01:05:02;;;;;;;10.00;7.33;;;12.90;94.70;;;;;;5029088;28;20301;-67
2023/08/16 01:07:28;;;;;;;10.97;7.03;;;13.00;94.90;;;;;;5010752;28;20319;-67
2023/08/16 01:09:54;;;;;;;7.67;5.70;;;12.90;95.00;;;;;;5027896;28;20292;-67
2023/08/16 01:12:45;;;;;;;7.37;6.40;;;12.90;95.20;;;;;;5018982;28;20045;-67
2023/08/16 01:15:11;;;;;;;6.23;5.60;;;12.90;95.20;;;;;;5029455;28;20553;-67
2023/08/16 01:17:38;;;;;;;5.67;4.90;;;12.90;95.20;;;;;;5026301;28;20292;-67
2023/08/16 01:20:07;;;;;;;8.90;6.87;;;12.90;95.20;;;;;;5028277;28;20056;-67
2023/08/16 01:23:00;;;;;;;8.53;7.23;;;12.80;95.20;;;;;;5028403;28;20294;-67
2023/08/16 01:25:51;;;;;;;11.13;7.73;;;12.80;95.30;;;;;;5030732;28;20296;-67
2023/08/16 01:28:19;;;;;;;10.93;7.43;;;12.80;95.40;;;;;;5007667;28;20294;-67
2023/08/16 01:30:45;;;;;;;10.40;8.30;;;12.80;95.30;;;;;;5013702;28;20331;-67
2023/08/16 01:33:13;;;;;;;9.20;7.50;;;12.80;95.40;;;;;;5015319;28;20326;-67
2023/08/16 01:35:39;;;;;;;10.00;8.17;;;12.70;95.40;;;;;;5031013;28;20280;-67
2023/08/16 01:38:07;;;;;;;10.93;7.80;;;12.70;95.40;;;;;;5025849;28;20295;-67
2023/08/16 01:41:21;;;;;;;9.07;7.40;;;12.70;95.50;;;;;;5027232;28;20296;-67
2023/08/16 01:43:47;;;;;;;11.60;7.40;;;12.70;95.60;;;;;;4950226;28;20293;-67
2023/08/16 01:46:14;;;;;;;7.87;7.07;;;12.70;95.60;;;;;;4956726;28;20372;-67
2023/08/16 01:48:41;;;;;;;8.23;7.33;;;12.70;95.70;;;;;;5005344;28;20283;-67
2023/08/16 01:51:07;;;;;;;7.20;6.50;;;12.60;95.60;;;;;;5031804;28;20663;-67
2023/08/16 01:53:34;;;;;;;8.13;7.07;;;12.60;95.70;;;;;;5025810;28;20284;-67
2023/08/16 01:56:00;;;;;;;10.03;7.70;;;12.60;95.70;;;;;;5026556;28;20304;-67
2023/08/16 01:58:26;;;;;;;7.57;6.77;;;12.70;95.90;;;;;;5030796;28;20275;-67
2023/08/16 02:00:51;;;;;;;8.00;6.87;;;12.60;95.80;;;;;;5022820;28;20308;-67
2023/08/16 02:03:17;;;;;;;9.33;7.30;;;12.60;95.70;;;;;;5021240;28;20062;-67
2023/08/16 02:05:43;;;;;;;6.20;5.50;;;12.60;95.60;;;;;;5030923;28;20033;-67
2023/08/16 02:08:10;;;;;;;10.30;7.73;;;12.60;95.60;;;;;;5009217;28;20041;-67
2023/08/16 02:10:36;;;;;;;8.00;6.80;;;12.60;95.60;;;;;;5027458;28;20283;-67
2023/08/16 02:13:03;;;;;;;8.47;6.80;;;12.50;95.60;;;;;;5025386;28;20288;-67
2023/08/16 02:15:28;;;;;;;8.73;6.30;;;12.50;95.60;;;;;;5029692;28;20296;-67
2023/08/16 02:17:54;;;;;;;9.60;6.67;;;12.50;95.70;;;;;;5033005;28;20302;-67
2023/08/16 02:20:20;;;;;;;10.17;6.80;;;12.50;95.80;;;;;;5027737;28;20048;-67
2023/08/16 02:22:46;;;;;;;7.70;6.77;;;12.50;95.90;;;;;;5012507;28;20132;-67
2023/08/16 02:25:11;;;;;;;7.67;5.80;;;12.50;95.90;;;;;;5014522;28;20098;-67
2023/08/16 02:27:37;;;;;;;8.67;6.00;;;12.50;95.60;;;;;;5027861;28;20029;-67
2023/08/16 02:30:04;;;;;;;6.50;5.80;;;12.40;95.60;;;;;;5011395;28;20085;-67
2023/08/16 02:32:30;;;;;;;8.20;5.43;;;12.40;95.60;;;;;;5013032;28;20569;-67
2023/08/16 02:34:56;;;;;;;7.73;5.30;;;12.40;95.60;;;;;;5029305;28;20291;-67
2023/08/16 02:37:23;;;;;;;7.73;5.67;;;12.40;95.70;;;;;;5029534;28;20337;-67
2023/08/16 02:39:48;;;;;;;9.53;6.57;;;12.30;95.80;;;;;;5009472;28;22015;-67
2023/08/16 02:42:14;;;;;;;11.57;7.43;;;12.30;95.80;;;;;;5030438;28;20355;-67
2023/08/16 02:44:40;;;;;;;10.03;6.40;;;12.30;95.80;;;;;;5030471;28;20032;-67
2023/08/16 02:47:06;;;;;;;9.87;6.33;;;12.30;95.90;;;;;;5013012;28;20650;-67
2023/08/16 02:49:32;;;;;;;9.67;7.07;;;12.30;96.20;;;;;;5012938;28;20291;-67
2023/08/16 02:51:57;;;;;;;7.43;6.47;;;12.30;96.20;;;;;;5028236;28;20041;-67
2023/08/16 02:54:23;;;;;;;12.53;6.83;;;12.20;96.20;;;;;;5030392;28;20067;-67
2023/08/16 02:56:49;;;;;;;8.00;6.23;;;12.20;96.10;;;;;;5026754;28;20037;-67
2023/08/16 02:59:15;;;;;;;7.33;5.67;;;12.20;96.10;;;;;;5013404;28;20037;-67
2023/08/16 03:01:41;;;;;;;7.10;5.43;;;12.20;96.10;;;;;;5027422;28;20045;-67
2023/08/16 03:04:07;;;;;;;8.67;6.10;;;12.20;96.20;;;;;;5025011;28;20720;-67
2023/08/16 03:06:33;;;;;;;7.50;6.00;;;12.20;96.30;;;;;;5028978;28;20291;-67
2023/08/16 03:09:00;;;;;;;6.67;5.70;;;12.10;96.30;;;;;;5033433;28;20417;-67
2023/08/16 03:11:26;;;;;;;8.73;6.57;;;12.10;96.30;;;;;;5030282;28;20079;-67
2023/08/16 03:13:51;;;;;;;9.17;6.17;;;12.10;96.40;;;;;;5034536;28;20360;-67
2023/08/16 03:16:17;;;;;;;7.97;5.30;;;12.10;96.60;;;;;;5016526;28;20036;-67
2023/08/16 03:18:43;;;;;;;4.17;3.77;;;12.10;96.50;;;;;;5035104;28;20498;-67
2023/08/16 03:21:08;;;;;;;5.37;4.30;;;12.10;96.60;;;;;;5028808;28;20045;-67
2023/08/16 03:23:34;;;;;;;6.37;4.30;;;12.00;96.50;;;;;;5026199;28;20080;-67
2023/08/16 03:26:00;;;;;;;6.17;3.80;;;12.00;96.60;;;;;;5022481;28;20137;-67
2023/08/16 03:28:25;;;;;;;5.17;4.40;;;12.00;97.20;;;;;;5028458;28;20040;-67
2023/08/16 03:30:51;;;;;;;5.80;4.30;;;12.00;96.90;;;;;;5017243;28;20044;-67
2023/08/16 03:33:17;;;;;;;4.60;4.03;;;12.00;96.80;;;;;;5034288;28;20045;-67
2023/08/16 03:35:43;;;;;;;4.20;3.80;;;12.00;96.80;;;;;;5029726;28;20048;-67
2023/08/16 03:38:08;;;;;;;5.33;4.37;;;12.00;96.90;;;;;;5016705;28;20036;-67
2023/08/16 03:40:34;;;;;;;6.53;4.00;;;12.00;96.80;;;;;;5029444;28;20605;-67
2023/08/16 03:43:00;;;;;;;5.50;4.90;;;11.90;96.70;;;;;;5022482;28;20056;-67
2023/08/16 03:45:26;;;;;;;5.83;4.70;;;11.90;96.70;;;;;;5016033;28;20106;-67
2023/08/16 03:47:56;;;;;;;6.47;4.90;;;11.90;96.60;;;;;;5032793;28;21449;-67
2023/08/16 03:50:22;;;;;;;6.30;4.93;;;11.90;96.70;;;;;;5014902;28;20295;-67
2023/08/16 03:52:50;;;;;;;10.17;5.20;;;12.00;97.00;;;;;;5029789;28;20705;-67
2023/08/16 03:55:16;;;;;;;9.33;5.57;;;12.00;97.10;;;;;;5030203;28;20282;-67
2023/08/16 03:57:41;;;;;;;9.27;4.97;;;12.00;96.90;;;;;;5028902;28;20853;-67
2023/08/16 04:00:12;;;;;;;8.17;3.87;;;12.00;97.00;;;;;;5029688;28;20094;-67
2023/08/16 04:02:40;;;;;;;8.00;4.03;;;12.00;96.80;;;;;;5011738;28;20645;-67
2023/08/16 04:05:13;;;;;;;7.83;4.13;;;11.90;96.60;;;;;;5027149;28;20801;-67
2023/08/16 04:07:39;;;;;;;5.13;4.27;;;11.90;96.70;;;;;;5032966;28;20287;-67
2023/08/16 04:10:06;;;;;;;5.03;3.47;;;11.90;97.10;;;;;;5029864;28;20402;-67
2023/08/16 04:12:31;;;;;;;3.47;2.80;;;11.90;97.10;;;;;;5028883;28;20295;-67
2023/08/16 04:14:57;;;;;;;3.63;3.00;;;11.90;97.10;;;;;;5015058;28;20295;-67
2023/08/16 04:17:23;;;;;;;3.60;2.87;;;11.90;97.10;;;;;;5029434;28;20064;-67
2023/08/16 04:19:48;;;;;;;7.83;4.20;;;11.90;97.10;;;;;;5026320;28;20716;-67
2023/08/16 04:22:14;;;;;;;5.07;3.20;;;11.90;97.10;;;;;;5031808;28;20048;-67
2023/08/16 04:24:40;;;;;;;5.83;3.40;;;12.00;97.40;;;;;;5007052;28;20482;-67
2023/08/16 04:27:05;;;;;;;7.13;3.20;;;12.00;97.60;;;;;;5026554;28;20120;-67
2023/08/16 04:29:31;;;;;;;6.50;3.33;;;12.00;97.70;;;;;;5026313;28;20049;-67
2023/08/16 04:31:57;;;;;;;4.40;3.10;;;12.00;97.80;;;;;;5029639;28;20033;-67
2023/08/16 04:34:23;;;;;;;14.47;3.50;;;12.10;97.90;;;;;;5033236;28;20080;-67
2023/08/16 04:36:48;;;;;;;4.63;3.50;;;12.10;97.90;;;;;;5015591;28;20037;-67
2023/08/16 04:39:14;;;;;;;7.10;3.37;;;12.10;97.80;;;;;;5020115;28;20504;-67
2023/08/16 04:41:40;;;;;;;7.57;3.20;;;12.10;97.80;;;;;;5021151;28;20445;-67
2023/08/16 04:44:06;;;;;;;12.10;3.67;;;12.20;98.00;;;;;;5032721;28;20400;-67
2023/08/16 04:46:32;;;;;;;13.63;4.03;;;12.20;98.50;;;;;;5009331;28;20120;-67
2023/08/16 04:48:57;;;;;;;9.30;4.40;;;12.30;98.70;;;;;;5030035;28;20053;-67
2023/08/16 04:51:23;;;;;;;13.43;4.80;;;12.30;98.50;;;;;;5031634;28;20367;-67
2023/08/16 04:53:49;;;;;;;11.57;5.00;;;12.40;98.70;;;;;;5032379;28;20390;-67
2023/08/16 04:56:14;;;;;;;49.40;6.63;;;12.40;98.60;;;;;;5032087;28;20044;-67
2023/08/16 04:58:40;;;;;;;24.23;5.87;;;12.50;98.80;;;;;;5014314;28;20489;-67
2023/08/16 05:01:06;;;;;;;31.90;5.80;;;12.50;98.80;;;;;;5028760;28;20119;-67
2023/08/16 05:03:32;;;;;;;14.03;4.53;;;12.60;98.60;;;;;;5023037;28;20052;-67
2023/08/16 05:06:02;;;;;;;6.40;4.17;;;12.70;98.70;;;;;;5014993;28;20638;-67
2023/08/16 05:08:29;;;;;;;7.47;4.27;;;12.70;98.70;;;;;;5028502;28;20706;-67
2023/08/16 05:10:56;;;;;;;17.47;5.73;;;12.80;98.70;;;;;;5030953;28;20299;-67
2023/08/16 05:13:21;;;;;;;8.17;5.10;;;12.90;98.60;;;;;;5032177;28;20385;-67
2023/08/16 05:15:47;;;;;;;7.27;5.20;;;13.00;98.60;;;;;;5027368;28;20382;-67
2023/08/16 05:18:13;;;;;;;5.00;4.33;;;13.00;98.30;;;;;;5014106;28;20065;-67
2023/08/16 05:20:39;;;;;;;5.10;4.50;;;13.10;98.40;;;;;;5031156;28;20052;-67
2023/08/16 05:23:04;;;;;;;5.50;4.07;;;13.20;98.40;;;;;;5029304;28;20063;-67
2023/08/16 05:25:30;;;;;;;4.63;3.87;;;13.30;98.50;;;;;;5011307;28;20037;-67
2023/08/16 05:27:58;;;;;;;4.63;3.87;;;13.30;98.30;;;;;;5034622;28;20557;-67
2023/08/16 05:30:25;;;;;;;4.53;4.00;;;13.40;98.30;;;;;;5029377;28;20556;-67
2023/08/16 05:32:54;;;;;;;4.03;3.63;;;13.50;98.10;;;;;;5025191;28;20780;-67
2023/08/16 05:35:19;;;;;;;9.50;4.07;;;13.60;98.30;;;;;;5030410;28;20318;-67
2023/08/16 05:37:45;;;;;;;5.47;3.77;;;13.70;98.40;;;;;;5007171;28;20363;-67
2023/08/16 05:40:11;;;;;;;5.37;3.77;;;13.90;98.50;;;;;;5031239;28;20037;-67
2023/08/16 05:42:38;;;;;;;4.83;4.40;;;14.00;98.50;;;;;;5025499;28;20120;-67
2023/08/16 05:45:05;;;;;;;4.37;3.63;;;14.10;98.70;;;;;;5041486;28;20655;-67
2023/08/16 05:47:30;;;;;;;6.00;3.47;;;14.20;98.70;;;;;;5035906;28;20694;-67
2023/08/16 05:49:57;;;;;;;3.93;3.57;;;14.40;98.70;;;;;;5022824;28;21003;-67
2023/08/16 05:52:23;;;;;;;2.70;2.50;;;14.50;98.60;;;;;;5026732;28;20507;-67
2023/08/16 05:54:49;;;;;;;4.63;2.90;;;14.60;98.60;;;;;;5035348;28;20284;-67
2023/08/16 05:57:14;;;;;;;3.73;2.93;;;14.60;98.30;;;;;;5036468;28;20045;-67
2023/08/16 05:59:40;;;;;;;4.57;2.70;;;14.70;98.10;;;;;;5020943;28;20135;-67
2023/08/16 06:02:06;;;;;;;3.53;2.70;;;14.70;98.00;;;;;;5018988;28;20032;-67
2023/08/16 06:04:33;;;;;;;4.43;3.10;;;14.80;97.90;;;;;;5026166;28;20098;-67
2023/08/16 06:07:00;;;;;;;4.97;3.00;;;14.90;97.90;;;;;;5010449;28;20703;-67
2023/08/16 06:09:25;;;;;;;4.03;2.90;;;14.90;97.90;;;;;;5011068;28;20283;-67
2023/08/16 06:11:51;;;;;;;2.73;2.50;;;15.00;98.10;;;;;;5018073;28;20701;-67
2023/08/16 06:14:17;;;;;;;4.60;2.83;;;15.00;98.20;;;;;;5023750;28;20502;-67
2023/08/16 06:16:43;;;;;;;4.67;3.33;;;15.10;98.20;;;;;;5025115;28;20037;-67
2023/08/16 06:19:10;;;;;;;5.77;3.77;;;15.20;98.30;;;;;;5014030;28;20148;-67
2023/08/16 06:21:36;;;;;;;6.70;4.23;;;15.30;98.50;;;;;;5009515;28;20033;-67
2023/08/16 06:24:03;;;;;;;7.20;4.17;;;15.40;98.60;;;;;;5029065;28;20330;-67
2023/08/16 06:26:29;;;;;;;7.27;4.20;;;15.50;98.80;;;;;;5027709;28;20287;-67
2023/08/16 06:28:55;;;;;;;7.30;5.13;;;15.70;99.10;;;;;;5011701;28;20337;-67
2023/08/16 06:31:20;;;;;;;9.87;5.00;;;15.80;99.20;;;;;;5010374;28;20041;-67
2023/08/16 06:33:46;;;;;;;8.23;4.60;;;16.00;99.40;;;;;;5024646;28;20118;-67
2023/08/16 06:36:13;;;;;;;11.90;4.83;;;16.40;99.90;;;;;;5025012;28;20040;-67
2023/08/16 06:38:38;;;;;;;6.63;4.53;;;17.10;99.90;;;;;;5004533;28;20119;-67
2023/08/16 06:41:04;;;;;;;9.53;4.87;;;18.20;99.90;;;;;;5018238;28;20446;-67
2023/08/16 06:43:30;;;;;;;8.40;4.80;;;19.20;98.50;;;;;;5026753;28;20063;-68
2023/08/16 06:45:57;;;;;;;11.33;5.13;;;20.10;94.50;;;;;;5030073;28;20047;-68
2023/08/16 06:48:23;;;;;;;7.73;4.43;;;20.90;89.80;;;;;;5026385;28;20111;-68
2023/08/16 06:50:48;;;;;;;5.37;4.00;;;21.50;86.10;;;;;;5012403;28;20323;-68
2023/08/16 06:53:15;;;;;;;4.57;3.23;;;22.00;83.40;;;;;;5011589;28;20131;-68
2023/08/16 06:55:40;;;;;;;4.40;3.20;;;22.20;79.90;;;;;;5026761;28;20529;-68
2023/08/16 06:58:06;;;;;;;4.90;3.10;;;22.10;79.00;;;;;;5029510;28;20073;-68
2023/08/16 07:00:35;;;;;;;5.37;2.97;;;21.50;79.20;;;;;;5027364;28;20041;-68
2023/08/16 07:03:02;;;;;;;6.10;3.00;;;20.90;81.80;;;;;;5029838;28;20045;-67
2023/08/16 07:05:28;;;;;;;5.90;3.63;;;20.40;82.30;;;;;;5013269;28;20428;-68
2023/08/16 07:07:54;;;;;;;9.73;3.70;;;20.00;83.90;;;;;;5027975;28;20037;-68
2023/08/16 07:10:19;;;;;;;6.47;3.40;;;19.70;85.20;;;;;;5013800;28;20045;-68
2023/08/16 07:12:46;;;;;;;5.27;3.00;;;19.60;86.10;;;;;;5025990;28;20045;-68
2023/08/16 07:15:12;;;;;;;7.47;3.60;;;19.50;86.60;;;;;;5002188;28;20045;-68
2023/08/16 07:17:40;;;;;;;5.90;3.20;;;19.30;86.40;;;;;;5022744;28;20065;-68
2023/08/16 07:20:07;;;;;;;7.07;2.50;;;19.10;86.90;;;;;;5012902;28;20103;-68
2023/08/16 07:22:39;;;;;;;5.57;2.70;;;19.00;86.80;;;;;;5022338;28;20140;-68
2023/08/16 07:25:06;;;;;;;9.23;3.27;;;18.90;86.90;;;;;;5030556;28;20040;-69
2023/08/16 07:27:33;;;;;;;6.10;3.60;;;18.80;87.20;;;;;;5023796;28;20117;-69
2023/08/16 07:29:59;;;;;;;8.97;3.50;;;18.70;87.80;;;;;;5013404;28;20037;-70
2023/08/16 07:32:24;;;;;;;5.67;2.87;;;18.70;87.80;;;;;;5007622;28;20197;-69
2023/08/16 07:34:50;;;;;;;6.63;3.47;;;18.70;87.70;;;;;;5026287;28;20105;-69
2023/08/16 07:37:17;;;;;;;5.67;4.13;;;18.80;88.10;;;;;;5030683;28;20496;-69
2023/08/16 07:39:44;;;;;;;5.57;3.40;;;18.90;87.70;;;;;;5023891;28;20034;-70
2023/08/16 07:42:10;;;;;;;7.43;3.70;;;18.90;87.60;;;;;;5025390;28;20486;-69
2023/08/16 07:44:36;;;;;;;5.37;3.20;;;18.90;87.70;;;;;;5028298;28;20037;-68
2023/08/16 07:47:02;;;;;;;5.97;3.50;;;19.00;87.90;;;;;;5027616;28;20072;-70
2023/08/16 07:49:29;;;;;;;5.53;3.20;;;19.10;87.50;;;;;;5032355;28;20124;-69
2023/08/16 07:51:58;;;;;;;5.60;3.53;;;19.20;87.30;;;;;;5025929;28;20129;-69
2023/08/16 07:54:24;;;;;;;7.07;3.30;;;19.30;86.80;;;;;;5034729;28;20098;-69
2023/08/16 07:56:53;;;;;;;6.37;3.40;;;19.50;86.90;;;;;;5012907;28;20065;-68
2023/08/16 07:59:19;;;;;;;5.90;3.63;;;19.60;86.90;;;;;;5032686;28;20904;-68
2023/08/16 08:01:45;;;;;;;7.53;3.90;;;19.70;87.10;;;;;;5028004;28;20476;-69
2023/08/16 08:04:11;;;;;;;3.50;1.70;;;19.90;86.60;;;;;;5031534;28;20239;-70
2023/08/16 08:06:37;;;;;;;3.53;1.80;;;19.90;84.10;;;;;;5014575;28;20041;-69
2023/08/16 08:09:03;;;;;;;6.97;2.13;;;19.90;83.70;;;;;;5032366;28;20044;-69
2023/08/16 08:11:29;;;;;;;3.73;1.40;;;19.90;83.90;;;;;;5018693;28;20047;-69
2023/08/16 08:13:55;;;;;;;6.97;1.90;;;20.00;83.60;;;;;;5036862;28;20479;-70
2023/08/16 08:16:21;;;;;;;5.00;2.17;;;20.10;83.50;;;;;;5023958;28;20041;-69
2023/08/16 08:18:46;;;;;;;5.97;2.37;;;20.30;82.50;;;;;;5017314;28;20064;-69
2023/08/16 08:21:12;;;;;;;4.13;1.80;;;20.30;82.20;;;;;;5011838;28;20068;-70
2023/08/16 08:23:38;;;;;;;5.40;1.70;;;20.50;82.50;;;;;;5009496;28;20037;-69
2023/08/16 08:26:06;;;;;;;5.17;2.10;;;20.60;82.30;;;;;;5008491;28;20044;-70
2023/08/16 08:28:32;;;;;;;4.63;2.13;;;20.80;81.80;;;;;;4994919;28;20041;-69
2023/08/16 08:31:02;;;;;;;4.53;1.73;;;20.90;81.30;;;;;;4995409;28;20038;-69
2023/08/16 08:33:29;;;;;;;4.50;1.60;;;21.10;80.30;;;;;;5017634;28;20041;-69
2023/08/16 08:35:56;;;;;;;3.00;1.50;;;21.20;79.70;;;;;;5012003;28;20038;-70
2023/08/16 08:38:22;;;;;;;2.90;1.97;;;21.30;79.20;;;;;;5020590;28;20558;-70
2023/08/16 08:40:58;;;;;;;4.53;1.57;;;21.30;78.40;;;;;;5021399;28;20050;-69
2023/08/16 08:43:35;;;;;;;4.47;2.37;;;21.40;77.50;;;;;;5006022;28;20094;-70
2023/08/16 08:46:03;;;;;;;3.43;1.60;;;21.50;76.80;;;;;;5016957;28;20077;-69
2023/08/16 08:48:30;;;;;;;4.17;1.40;;;21.60;77.40;;;;;;5009268;28;20045;-69
2023/08/16 08:50:57;;;;;;;4.00;1.37;;;21.70;76.50;;;;;;5007465;28;20436;-69
2023/08/16 08:53:24;;;;;;;3.00;1.50;;;21.70;76.70;;;;;;5009741;28;20071;-67
2023/08/16 08:55:55;;;;;;;4.77;1.90;;;21.70;76.00;;;;;;5010623;28;20033;-67
2023/08/16 08:58:22;;;;;;;3.70;1.70;;;21.80;75.90;;;;;;5005961;28;20067;-67
2023/08/16 09:00:49;;;;;;;3.40;1.60;;;21.80;74.50;;;;;;4995937;28;20497;-67
2023/08/16 09:03:17;;;;;;;4.77;1.43;;;21.90;74.70;;;;;;5017493;28;20144;-67
2023/08/16 09:05:45;;;;;;;3.27;1.10;;;22.00;74.00;;;;;;4996123;28;20034;-67
2023/08/16 09:08:13;;;;;;;4.37;1.50;;;22.00;74.30;;;;;;5013180;28;20041;-69
2023/08/16 09:10:40;;;;;;;3.67;1.30;;;22.00;74.10;;;;;;5013771;28;20056;-67
2023/08/16 09:13:08;;;;;;;4.90;1.40;;;22.00;73.80;;;;;;5005660;28;20041;-67
2023/08/16 09:15:34;;;;;;;5.63;1.40;;;21.90;73.00;;;;;;5007756;28;20038;-67
2023/08/16 09:18:17;;;;;;;6.87;0.80;;;21.90;74.00;;;;;;5013359;28;20119;-67
2023/08/16 09:20:44;;;;;;;2.57;1.07;;;21.80;72.10;;;;;;5041524;28;20049;-67
2023/08/16 09:23:13;;;;;;;3.20;1.10;;;21.80;72.50;;;;;;5026861;28;20032;-67
2023/08/16 09:25:39;;;;;;;3.90;1.00;;;21.80;73.00;;;;;;5031067;28;20029;-67
2023/08/16 09:28:09;;;;;;;2.10;1.10;;;22.00;73.10;;;;;;5028047;28;20449;-67
2023/08/16 09:30:34;;;;;;;4.83;1.30;;;22.10;72.60;;;;;;5024947;28;20527;-67
2023/08/16 09:33:00;;;;;;;3.53;1.10;;;22.10;70.40;;;;;;5021594;28;20120;-67
2023/08/16 09:35:30;;;;;;;3.57;0.80;;;22.10;70.80;;;;;;5029238;28;20084;-67
2023/08/16 09:38:00;;;;;;;3.33;0.80;;;22.20;69.90;;;;;;5026384;28;20040;-67
2023/08/16 09:40:26;;;;;;;3.53;0.90;;;22.30;70.10;;;;;;5026345;28;20083;-67
2023/08/16 09:42:57;;;;;;;2.23;0.70;;;22.40;70.00;;;;;;5012851;28;20040;-67
2023/08/16 09:45:34;;;;;;;3.70;1.00;;;22.50;69.70;;;;;;5030686;28;20068;-67
2023/08/16 09:48:04;;;;;;;2.03;1.40;;;22.70;68.80;;;;;;5013133;28;20048;-67
2023/08/16 09:50:35;;;;;;;5.30;1.10;;;22.90;68.80;;;;;;5028756;28;20118;-67
2023/08/16 09:53:04;;;;;;;6.70;1.27;;;23.00;67.80;;;;;;5030176;28;20087;-67
2023/08/16 09:55:35;;;;;;;5.23;1.50;;;23.00;67.60;;;;;;5034551;28;20132;-67
2023/08/16 09:58:01;;;;;;;2.60;1.30;;;23.00;68.50;;;;;;5002065;28;20120;-67
2023/08/16 10:00:28;;;;;;;2.53;1.07;;;23.10;66.50;;;;;;5014115;28;20051;-67
2023/08/16 10:02:55;;;;;;;4.37;1.23;;;23.10;66.80;;;;;;5029243;28;20037;-67
2023/08/16 10:05:21;;;;;;;4.07;1.87;;;23.20;65.50;;;;;;5025945;28;20037;-67
2023/08/16 10:07:48;;;;;;;2.30;1.13;;;23.20;66.30;;;;;;5029194;28;20273;-67
2023/08/16 10:10:15;;;;;;;1.70;0.97;;;23.30;66.70;;;;;;5030804;28;20052;-67
2023/08/16 10:12:42;;;;;;;1.87;0.87;;;23.50;66.90;;;;;;5031239;28;20049;-67
2023/08/16 10:15:09;;;;;;;4.30;1.17;;;23.50;65.70;;;;;;5027993;28;20555;-67
2023/08/16 10:17:39;;;;;;;2.00;1.00;;;23.60;64.60;;;;;;5011680;28;20460;-69
2023/08/16 10:20:21;;;;;;;2.43;1.40;;;23.60;65.00;;;;;;5026764;28;20053;-68
2023/08/16 10:22:53;;;;;;;5.03;1.70;;;23.60;65.30;;;;;;5010929;28;20040;-68
2023/08/16 10:25:23;;;;;;;3.23;1.30;;;23.70;65.60;;;;;;5025659;28;20040;-68
2023/08/16 10:27:53;;;;;;;3.80;1.30;;;23.70;65.60;;;;;;5027916;28;20029;-67
2023/08/16 10:30:21;;;;;;;2.83;1.20;;;23.70;64.70;;;;;;5023572;28;20186;-68
2023/08/16 10:32:53;;;;;;;3.97;1.63;;;23.60;65.10;;;;;;5021700;28;20041;-68
2023/08/16 10:35:19;;;;;;;4.43;0.90;;;23.60;65.30;;;;;;5027257;28;20124;-68
2023/08/16 10:37:49;;;;;;;2.57;0.90;;;23.70;65.20;;;;;;5028981;28;20551;-70
2023/08/16 10:40:24;;;;;;;3.13;0.60;;;23.80;64.20;;;;;;5021317;28;20444;-68
2023/08/16 10:43:03;;;;;;;2.20;0.80;;;23.90;63.10;;;;;;5005794;28;20349;-68
2023/08/16 10:45:34;;;;;;;2.53;0.80;;;24.00;62.00;;;;;;5010657;28;20648;-67
2023/08/16 10:48:11;;;;;;;1.27;0.50;;;24.10;61.90;;;;;;5011729;28;20036;-70
2023/08/16 10:50:37;;;;;;;1.67;0.40;;;24.10;61.50;;;;;;5029175;28;20041;-68
2023/08/16 10:53:04;;;;;;;2.50;0.70;;;24.10;61.50;;;;;;5027680;28;20049;-70
2023/08/16 10:55:30;;;;;;;1.10;0.30;;;24.20;62.00;;;;;;5020722;28;20069;-68
2023/08/16 10:57:56;;;;;;;3.03;0.77;;;24.40;60.60;;;;;;5029593;28;20072;-70
2023/08/16 11:00:32;;;;;;;2.23;0.70;;;24.50;61.20;;;;;;5029988;28;20103;-70
2023/08/16 11:03:04;;;;;;;3.43;0.80;;;24.70;59.70;;;;;;5033570;28;20393;-71
2023/08/16 11:05:34;;;;;;;2.43;0.90;;;24.80;59.30;;;;;;5042140;28;20045;-70
2023/08/16 11:08:04;;;;;;;2.73;0.73;;;24.90;58.70;;;;;;5032985;28;20485;-70
2023/08/16 11:10:37;;;;;;;2.37;0.70;;;25.00;59.70;;;;;;5027963;28;20076;-70
2023/08/16 11:13:12;;;;;;;2.43;0.57;;;25.20;58.40;;;;;;5019635;28;20424;-70
2023/08/16 11:15:40;;;;;;;1.27;0.53;;;25.30;58.00;;;;;;5007795;28;20099;-72
2023/08/16 11:18:06;;;;;;;1.40;0.40;;;25.50;57.20;;;;;;5031473;28;20118;-71
2023/08/16 11:20:32;;;;;;;1.63;0.50;;;25.60;58.20;;;;;;5026715;28;20041;-69
2023/08/16 11:22:58;;;;;;;1.93;0.60;;;25.60;57.60;;;;;;5025945;28;20052;-71
2023/08/16 11:25:32;;;;;;;2.37;0.87;;;25.70;57.80;;;;;;5014530;28;20492;-70
2023/08/16 11:28:04;;;;;;;2.37;0.57;;;25.80;56.20;;;;;;5024227;28;20041;-71
2023/08/16 11:30:33;;;;;;;1.67;0.60;;;25.60;55.80;;;;;;5029192;28;20044;-70
2023/08/16 11:32:59;;;;;;;1.93;0.70;;;25.30;57.30;;;;;;5027699;28;20047;-71
2023/08/16 11:35:25;;;;;;;2.27;0.73;;;25.10;57.30;;;;;;5032667;28;20547;-70
2023/08/16 11:37:51;;;;;;;1.63;0.60;;;25.10;58.70;;;;;;5027047;28;20049;-70
2023/08/16 11:40:23;;;;;;;3.00;0.70;;;25.30;59.00;;;;;;5025763;28;20040;-70
2023/08/16 11:42:53;;;;;;;1.23;0.60;;;25.40;59.10;;;;;;5034486;28;20068;-70
2023/08/16 11:45:19;;;;;;;1.60;0.63;;;25.50;57.70;;;;;;5033043;28;21164;-70
2023/08/16 11:47:49;;;;;;;1.73;0.40;;;25.60;56.10;;;;;;5018303;28;20501;-71
2023/08/16 11:50:15;;;;;;;3.20;0.60;;;25.60;56.40;;;;;;5016221;28;20052;-70
2023/08/16 11:52:40;;;;;;;4.07;0.50;;;25.60;56.90;;;;;;5034132;28;20118;-70
2023/08/16 11:55:09;;;;;;;1.97;0.50;;;25.80;56.60;;;;;;5034160;28;20083;-71
2023/08/16 11:57:48;;;;;;;1.83;0.50;;;25.90;56.00;;;;;;5031196;28;20132;-70
2023/08/16 12:00:24;;;;;;;2.50;0.70;;;26.00;53.70;;;;;;5015755;28;20071;-70
2023/08/16 12:02:50;;;;;;;2.53;0.80;;;26.00;54.20;;;;;;5030431;28;20037;-70
2023/08/16 12:05:15;;;;;;;1.70;0.40;;;25.90;54.70;;;;;;5030740;28;20492;-70
2023/08/16 12:07:43;;;;;;;0.97;0.50;;;26.00;54.30;;;;;;5032671;28;20048;-70
2023/08/16 12:10:08;;;;;;;1.80;0.43;;;26.00;53.50;;;;;;5022647;28;20040;-71
2023/08/16 12:12:34;;;;;;;1.33;0.60;;;26.00;52.70;;;;;;5030985;28;20111;-70
2023/08/16 12:15:00;;;;;;;2.60;0.67;;;26.10;52.80;;;;;;5032796;28;20405;-70
2023/08/16 12:17:26;;;;;;;1.20;0.30;;;26.10;53.50;;;;;;5032976;28;20506;-71
2023/08/16 12:19:51;;;;;;;1.23;0.33;;;26.20;53.00;;;;;;5030798;28;20092;-69
2023/08/16 12:22:17;;;;;;;2.30;0.50;;;26.30;52.90;;;;;;5018303;28;20045;-70
2023/08/16 12:24:43;;;;;;;0.83;0.60;;;26.40;52.60;;;;;;5025585;28;20090;-70
2023/08/16 12:27:09;;;;;;;2.23;0.50;;;26.60;53.00;;;;;;5029812;28;20300;-69
2023/08/16 12:29:34;;;;;;;1.60;0.40;;;26.80;53.20;;;;;;5009850;28;20052;-70
2023/08/16 12:32:00;;;;;;;2.47;0.40;;;26.90;52.20;;;;;;5003646;28;20162;-69
2023/08/16 12:34:26;;;;;;;3.37;0.40;;;26.80;51.70;;;;;;5016417;28;20084;-70
2023/08/16 12:36:52;;;;;;;1.53;0.43;;;26.80;51.40;;;;;;5036940;28;20119;-70
2023/08/16 12:39:17;;;;;;;1.43;0.47;;;26.60;50.70;;;;;;5025745;28;20045;-70
2023/08/16 12:41:43;;;;;;;2.40;0.40;;;26.50;51.30;;;;;;5025974;28;20064;-69
2023/08/16 12:44:10;;;;;;;3.50;0.40;;;26.40;52.20;;;;;;5037866;28;20033;-70
2023/08/16 12:46:36;;;;;;;0.97;0.40;;;26.40;52.10;;;;;;5018430;28;20122;-71